Time;durP1;ratioP1;P1;durP2;ratioP2;P2;SDS_P1;SDS_P2;PMS_P1;PMS_P2;Temp;Humidity;BMP_temperature;BMP_pressure;BME280_temperature;BME280_humidity;BME280_pressure;Samples;Min_cycle;Max_cycle;Signal;HPM_P1;HPM_P2
2021/03/30 00:01:23;;;;;;;11.82;8.63;;;10.20;77.90;;;;;;5064221;28;20060;-41
2021/03/30 00:03:48;;;;;;;9.93;7.75;;;10.20;77.90;;;;;;5063988;28;20028;-37
2021/03/30 00:06:17;;;;;;;10.95;8.02;;;10.20;78.00;;;;;;5064257;28;20074;-38
2021/03/30 00:08:43;;;;;;;11.48;8.50;;;10.20;78.10;;;;;;5063879;28;20029;-38
2021/03/30 00:11:11;;;;;;;12.30;8.93;;;10.20;78.30;;;;;;5063825;28;20354;-39
2021/03/30 00:13:37;;;;;;;13.18;8.52;;;10.20;78.40;;;;;;5064149;28;20059;-41
2021/03/30 00:16:03;;;;;;;13.48;10.02;;;10.20;78.50;;;;;;5063540;28;20032;-37
2021/03/30 00:18:29;;;;;;;12.43;9.30;;;10.20;78.70;;;;;;5064256;28;20024;-40
2021/03/30 00:20:54;;;;;;;12.75;9.18;;;10.20;78.70;;;;;;5065394;28;20701;-39
2021/03/30 00:23:20;;;;;;;13.40;9.13;;;10.10;78.70;;;;;;5068530;28;20024;-38
2021/03/30 00:25:45;;;;;;;10.10;8.05;;;10.10;78.80;;;;;;5068452;28;20056;-37
2021/03/30 00:28:11;;;;;;;15.30;9.35;;;10.10;79.00;;;;;;5067539;28;20282;-39
2021/03/30 00:30:37;;;;;;;13.80;10.02;;;10.10;79.20;;;;;;5067955;28;20025;-39
2021/03/30 00:33:06;;;;;;;14.70;9.95;;;10.10;79.30;;;;;;5068192;28;20032;-39
2021/03/30 00:35:31;;;;;;;11.60;9.40;;;10.00;79.50;;;;;;5067451;28;20024;-39
2021/03/30 00:37:57;;;;;;;13.85;9.35;;;10.00;79.60;;;;;;5067605;28;20055;-39
2021/03/30 00:40:22;;;;;;;16.20;10.20;;;10.00;79.80;;;;;;5067536;28;20036;-39
2021/03/30 00:42:48;;;;;;;12.48;9.73;;;9.90;79.90;;;;;;5062517;28;20046;-38
2021/03/30 00:45:14;;;;;;;14.65;9.68;;;9.90;80.00;;;;;;5067776;28;20028;-38
2021/03/30 00:47:44;;;;;;;12.75;9.43;;;9.80;80.20;;;;;;5067596;28;20090;-39
2021/03/30 00:50:13;;;;;;;14.43;9.75;;;9.80;80.40;;;;;;5067455;28;20455;-37
2021/03/30 00:52:41;;;;;;;14.05;10.43;;;9.80;80.50;;;;;;5067435;28;20127;-37
2021/03/30 00:55:07;;;;;;;13.30;9.05;;;9.70;80.60;;;;;;5067520;28;20108;-39
2021/03/30 00:57:35;;;;;;;15.13;9.73;;;9.60;80.80;;;;;;5067325;28;20037;-39
2021/03/30 01:00:01;;;;;;;13.88;9.30;;;9.60;81.00;;;;;;5067494;28;20082;-37
2021/03/30 01:02:27;;;;;;;12.05;9.38;;;9.50;81.10;;;;;;5067744;28;20064;-43
2021/03/30 01:04:55;;;;;;;16.02;9.60;;;9.50;81.40;;;;;;5066750;28;20056;-40
2021/03/30 01:07:23;;;;;;;12.95;9.32;;;9.40;81.50;;;;;;5063250;28;20060;-38
2021/03/30 01:10:15;;;;;;;13.38;9.68;;;9.30;81.60;;;;;;5057537;28;20376;-42
2021/03/30 01:13:05;;;;;;;13.90;9.57;;;9.30;82.10;;;;;;5066980;28;20527;-41
2021/03/30 01:15:44;;;;;;;12.38;9.20;;;9.20;82.20;;;;;;5066850;28;20040;-40
2021/03/30 01:18:18;;;;;;;16.73;9.23;;;9.20;82.20;;;;;;5066752;28;20029;-38
2021/03/30 01:21:05;;;;;;;14.27;10.23;;;9.10;82.30;;;;;;5059841;28;20047;-39
2021/03/30 01:23:54;;;;;;;15.38;9.90;;;9.10;82.50;;;;;;5067385;28;20746;-39
2021/03/30 01:26:22;;;;;;;12.38;9.80;;;9.00;82.70;;;;;;5060966;28;20039;-39
2021/03/30 01:29:00;;;;;;;13.82;9.75;;;8.90;83.30;;;;;;5067024;28;20029;-38
2021/03/30 01:31:29;;;;;;;14.30;10.05;;;8.90;82.80;;;;;;5067051;28;20073;-39
2021/03/30 01:34:00;;;;;;;14.95;10.13;;;8.90;83.00;;;;;;5066288;28;20031;-40
2021/03/30 01:36:29;;;;;;;13.32;9.77;;;8.80;82.90;;;;;;5067005;28;20036;-38
2021/03/30 01:38:56;;;;;;;15.38;10.70;;;8.80;83.00;;;;;;5065577;28;20514;-38
2021/03/30 01:41:23;;;;;;;16.80;10.80;;;8.80;83.20;;;;;;5059843;28;20029;-39
2021/03/30 01:43:49;;;;;;;14.70;10.07;;;8.70;83.30;;;;;;5049001;28;20789;-37
2021/03/30 01:46:16;;;;;;;14.65;9.73;;;8.70;83.40;;;;;;5067033;28;20056;-36
2021/03/30 01:48:43;;;;;;;13.00;9.95;;;8.70;83.50;;;;;;5066604;28;20028;-36
2021/03/30 01:51:10;;;;;;;16.08;11.13;;;8.60;83.60;;;;;;5066781;28;20032;-38
2021/03/30 01:53:37;;;;;;;13.48;10.50;;;8.60;84.40;;;;;;5060012;28;20537;-38
2021/03/30 01:56:05;;;;;;;15.75;11.63;;;8.60;84.10;;;;;;5062474;28;20302;-39
2021/03/30 01:58:32;;;;;;;13.70;10.43;;;8.50;84.10;;;;;;5065255;28;20016;-38
2021/03/30 02:01:00;;;;;;;14.07;10.25;;;8.50;84.20;;;;;;5063816;28;20495;-38
2021/03/30 02:03:27;;;;;;;13.93;10.25;;;8.40;84.30;;;;;;5064394;28;20119;-38
2021/03/30 02:05:55;;;;;;;14.50;10.60;;;8.40;84.40;;;;;;5061329;28;20044;-38
2021/03/30 02:08:20;;;;;;;16.63;11.27;;;8.30;84.60;;;;;;5058279;28;20575;-38
2021/03/30 02:10:48;;;;;;;14.40;10.73;;;8.30;84.80;;;;;;5056984;28;20021;-39
2021/03/30 02:13:54;;;;;;;15.60;10.85;;;8.30;85.00;;;;;;5066575;28;20037;-39
2021/03/30 02:16:14;;;;;;;17.73;11.20;;;8.30;85.00;;;;;;5062084;28;20047;-39
2021/03/30 02:18:56;;;;;;;16.00;10.93;;;8.20;85.10;;;;;;5056829;28;20108;-37
2021/03/30 02:21:27;;;;;;;15.95;10.95;;;8.20;85.30;;;;;;5059225;28;20023;-36
2021/03/30 02:23:55;;;;;;;15.38;10.60;;;8.20;85.40;;;;;;5065678;28;20078;-36
2021/03/30 02:26:22;;;;;;;13.75;10.80;;;8.10;85.50;;;;;;5064680;28;20118;-38
2021/03/30 02:28:54;;;;;;;15.85;10.98;;;8.10;85.70;;;;;;5060596;28;20020;-38
2021/03/30 02:31:27;;;;;;;18.60;12.10;;;8.10;85.80;;;;;;5065341;28;20126;-39
2021/03/30 02:33:56;;;;;;;17.40;11.18;;;8.00;85.90;;;;;;5064750;28;20200;-40
2021/03/30 02:36:25;;;;;;;16.38;11.73;;;8.00;86.00;;;;;;5060369;28;20039;-39
2021/03/30 02:38:54;;;;;;;18.10;11.65;;;8.00;86.20;;;;;;5065418;28;20036;-39
2021/03/30 02:41:20;;;;;;;16.17;10.98;;;8.00;86.20;;;;;;5065273;28;20036;-39
2021/03/30 02:43:47;;;;;;;17.70;11.68;;;8.00;86.30;;;;;;5059490;28;20426;-39
2021/03/30 02:46:16;;;;;;;16.67;11.27;;;7.90;86.30;;;;;;5060389;28;20107;-40
2021/03/30 02:48:43;;;;;;;15.40;10.30;;;7.90;86.40;;;;;;5053428;28;20030;-38
2021/03/30 02:51:10;;;;;;;16.13;10.68;;;7.90;86.50;;;;;;5057428;28;20045;-36
2021/03/30 02:53:37;;;;;;;17.67;11.73;;;7.90;86.60;;;;;;5063382;28;20211;-37
2021/03/30 02:56:05;;;;;;;18.48;11.60;;;7.90;86.70;;;;;;5063159;28;20093;-37
2021/03/30 02:58:32;;;;;;;16.25;11.65;;;7.80;86.80;;;;;;5063521;28;20063;-38
2021/03/30 03:00:58;;;;;;;18.10;11.65;;;7.80;86.90;;;;;;5056157;28;20028;-37
2021/03/30 03:03:24;;;;;;;18.38;11.07;;;7.80;87.00;;;;;;5061375;28;20028;-38
2021/03/30 03:05:50;;;;;;;17.98;11.80;;;7.80;87.10;;;;;;5063834;28;20201;-38
2021/03/30 03:08:18;;;;;;;20.00;11.30;;;7.80;87.30;;;;;;5064686;28;20052;-39
2021/03/30 03:10:44;;;;;;;18.60;11.20;;;7.80;87.40;;;;;;5044661;28;20526;-39
2021/03/30 03:13:13;;;;;;;18.55;12.25;;;7.70;87.40;;;;;;5058698;28;20020;-42
2021/03/30 03:15:41;;;;;;;17.75;10.63;;;7.70;87.60;;;;;;5064991;28;20036;-39
2021/03/30 03:18:10;;;;;;;18.80;11.45;;;7.70;87.60;;;;;;5064185;28;20355;-39
2021/03/30 03:20:37;;;;;;;19.02;11.65;;;7.60;87.60;;;;;;5064978;28;20089;-39
2021/03/30 03:23:04;;;;;;;16.33;10.60;;;7.60;87.70;;;;;;5064492;28;20453;-38
2021/03/30 03:25:30;;;;;;;16.52;11.05;;;7.60;87.80;;;;;;5064447;28;20380;-38
2021/03/30 03:27:56;;;;;;;19.70;13.05;;;7.50;87.90;;;;;;5064198;28;20046;-36
2021/03/30 03:30:24;;;;;;;16.70;11.60;;;7.50;88.10;;;;;;5065114;28;20028;-39
2021/03/30 03:32:49;;;;;;;17.65;11.25;;;7.50;88.10;;;;;;5064289;28;20039;-38
2021/03/30 03:35:15;;;;;;;18.85;11.05;;;7.50;88.20;;;;;;5065062;28;20047;-36
2021/03/30 03:37:43;;;;;;;18.83;12.02;;;7.40;88.20;;;;;;5064374;28;20078;-39
2021/03/30 03:40:09;;;;;;;18.98;11.93;;;7.40;88.30;;;;;;5064148;28;20042;-40
2021/03/30 03:42:37;;;;;;;16.27;11.13;;;7.40;88.30;;;;;;5064290;28;20029;-39
2021/03/30 03:45:04;;;;;;;19.10;12.32;;;7.40;88.40;;;;;;5063834;28;20587;-39
2021/03/30 03:47:30;;;;;;;19.75;11.48;;;7.30;88.50;;;;;;5064736;28;20047;-38
2021/03/30 03:49:55;;;;;;;17.50;10.93;;;7.30;88.50;;;;;;5064607;28;20358;-38
2021/03/30 03:52:23;;;;;;;17.73;11.18;;;7.20;88.60;;;;;;5064757;28;20079;-40
2021/03/30 03:54:50;;;;;;;20.90;11.20;;;7.20;88.70;;;;;;5064021;28;20024;-38
2021/03/30 03:57:26;;;;;;;19.80;12.85;;;7.10;88.70;;;;;;5064618;28;20095;-38
2021/03/30 03:59:52;;;;;;;17.88;11.80;;;7.10;88.80;;;;;;5064042;28;20035;-40
2021/03/30 04:02:24;;;;;;;20.30;13.00;;;7.10;88.90;;;;;;5065185;28;20021;-37
2021/03/30 04:04:51;;;;;;;19.13;12.98;;;7.10;89.10;;;;;;5064332;28;20125;-38
2021/03/30 04:07:24;;;;;;;20.30;13.23;;;7.10;89.20;;;;;;5063913;28;20547;-37
2021/03/30 04:09:55;;;;;;;19.08;12.35;;;7.00;89.30;;;;;;5057897;28;20029;-41
2021/03/30 04:12:23;;;;;;;17.00;10.98;;;7.00;89.30;;;;;;5064281;28;20411;-38
2021/03/30 04:14:49;;;;;;;18.35;11.23;;;7.00;89.30;;;;;;5064065;28;20462;-40
2021/03/30 04:17:17;;;;;;;20.00;11.95;;;6.90;89.40;;;;;;5065668;28;20074;-40
2021/03/30 04:19:44;;;;;;;19.92;11.63;;;6.90;89.40;;;;;;5059780;28;20032;-38
2021/03/30 04:22:10;;;;;;;22.83;13.07;;;6.90;89.50;;;;;;5060252;28;20166;-39
2021/03/30 04:24:35;;;;;;;21.65;13.43;;;6.90;89.60;;;;;;5059814;28;20139;-38
2021/03/30 04:27:01;;;;;;;20.63;13.75;;;6.90;89.70;;;;;;5057201;28;20036;-39
2021/03/30 04:29:27;;;;;;;23.15;14.13;;;6.90;89.90;;;;;;5059390;28;20037;-38
2021/03/30 04:31:53;;;;;;;22.17;13.85;;;6.80;89.90;;;;;;5064059;28;20043;-39
2021/03/30 04:34:21;;;;;;;25.17;13.90;;;6.80;90.00;;;;;;5063549;28;20108;-41
2021/03/30 04:36:47;;;;;;;20.38;12.98;;;6.80;90.10;;;;;;5063827;28;20039;-38
2021/03/30 04:39:12;;;;;;;19.05;13.13;;;6.80;90.00;;;;;;5061140;28;20021;-38
2021/03/30 04:41:38;;;;;;;23.38;13.90;;;6.80;90.00;;;;;;5062494;28;20143;-39
2021/03/30 04:44:04;;;;;;;23.67;13.45;;;6.70;90.00;;;;;;5058328;28;20361;-37
2021/03/30 04:46:31;;;;;;;23.90;14.15;;;6.70;90.00;;;;;;5064126;28;20047;-37
2021/03/30 04:48:56;;;;;;;20.80;13.70;;;6.70;90.10;;;;;;5063811;28;20048;-37
2021/03/30 04:51:22;;;;;;;24.23;14.88;;;6.70;90.10;;;;;;5063901;28;20063;-39
2021/03/30 04:53:47;;;;;;;23.60;15.27;;;6.70;90.10;;;;;;5063494;28;20584;-38
2021/03/30 04:56:13;;;;;;;24.58;16.08;;;6.70;90.20;;;;;;5063444;28;20044;-39
2021/03/30 04:58:38;;;;;;;26.90;16.60;;;6.70;90.20;;;;;;5063772;28;20033;-38
2021/03/30 05:01:04;;;;;;;28.20;16.10;;;6.70;90.30;;;;;;5063488;28;20077;-40
2021/03/30 05:03:29;;;;;;;26.33;16.13;;;6.70;90.30;;;;;;5063745;28;20028;-39
2021/03/30 05:05:58;;;;;;;26.27;15.52;;;6.60;90.30;;;;;;5063506;28;20048;-38
2021/03/30 05:08:23;;;;;;;23.45;15.07;;;6.60;90.40;;;;;;5066064;28;20386;-39
2021/03/30 05:10:50;;;;;;;26.77;14.77;;;6.60;90.40;;;;;;5067255;28;20073;-41
2021/03/30 05:13:16;;;;;;;24.00;14.32;;;6.70;90.40;;;;;;5067720;28;20131;-39
2021/03/30 05:15:41;;;;;;;25.02;14.98;;;6.60;90.40;;;;;;5067364;28;20108;-38
2021/03/30 05:18:07;;;;;;;27.05;14.23;;;6.60;90.40;;;;;;5060312;28;20031;-39
2021/03/30 05:20:32;;;;;;;28.20;14.38;;;6.60;90.40;;;;;;5064961;28;20024;-37
2021/03/30 05:22:58;;;;;;;26.80;14.20;;;6.60;90.40;;;;;;5065849;28;20031;-39
2021/03/30 05:25:24;;;;;;;31.80;14.05;;;6.60;90.50;;;;;;5067118;28;20051;-39
2021/03/30 05:27:50;;;;;;;32.50;13.38;;;6.60;90.50;;;;;;5067082;28;20024;-38
2021/03/30 05:30:16;;;;;;;25.48;13.55;;;6.60;90.50;;;;;;5064697;28;20033;-41
2021/03/30 05:32:42;;;;;;;28.70;14.32;;;6.60;90.60;;;;;;5056972;28;20039;-38
2021/03/30 05:35:12;;;;;;;27.55;14.35;;;6.60;90.60;;;;;;5064623;28;20029;-38
2021/03/30 05:37:38;;;;;;;26.73;13.68;;;6.60;90.70;;;;;;5063115;28;20047;-39
2021/03/30 05:40:09;;;;;;;22.17;13.40;;;6.60;90.70;;;;;;5063854;28;20079;-39
2021/03/30 05:42:35;;;;;;;24.25;14.50;;;6.60;90.70;;;;;;5063176;28;20107;-38
2021/03/30 05:45:01;;;;;;;24.65;14.68;;;6.60;90.70;;;;;;5061404;28;20163;-40
2021/03/30 05:47:28;;;;;;;28.00;15.07;;;6.60;90.70;;;;;;5056781;28;20020;-39
2021/03/30 05:49:54;;;;;;;23.55;14.57;;;6.70;90.80;;;;;;5061845;28;20127;-39
2021/03/30 05:52:49;;;;;;;24.95;15.10;;;6.70;90.70;;;;;;5059425;28;20146;-39
2021/03/30 05:55:27;;;;;;;22.02;14.50;;;6.70;90.70;;;;;;5063220;28;20024;-36
2021/03/30 05:57:55;;;;;;;24.08;15.13;;;6.80;91.00;;;;;;5059905;28;20063;-39
2021/03/30 06:00:23;;;;;;;23.90;14.40;;;6.70;90.70;;;;;;5061587;28;20094;-39
2021/03/30 06:02:52;;;;;;;22.83;14.10;;;6.80;90.70;;;;;;5064225;28;20029;-39
2021/03/30 06:05:18;;;;;;;23.85;14.27;;;6.80;90.80;;;;;;5064895;28;20041;-35
2021/03/30 06:07:44;;;;;;;25.63;14.55;;;6.80;90.80;;;;;;5064658;28;20032;-42
2021/03/30 06:10:14;;;;;;;25.38;14.77;;;6.80;90.80;;;;;;5064350;28;20280;-42
2021/03/30 06:12:39;;;;;;;24.50;14.38;;;6.90;90.80;;;;;;5063653;28;20099;-38
2021/03/30 06:15:07;;;;;;;23.38;14.07;;;6.90;91.10;;;;;;5063112;28;20399;-38
2021/03/30 06:17:50;;;;;;;26.05;14.52;;;6.90;90.80;;;;;;5047836;28;20041;-41
2021/03/30 06:20:34;;;;;;;20.13;12.82;;;7.00;90.90;;;;;;5063429;28;20104;-38
2021/03/30 06:23:06;;;;;;;22.60;13.70;;;7.00;90.80;;;;;;5064012;28;20341;-42
2021/03/30 06:25:49;;;;;;;24.50;13.20;;;7.10;90.70;;;;;;5061205;28;20028;-40
2021/03/30 06:28:20;;;;;;;23.02;12.73;;;7.20;90.70;;;;;;5065173;28;20032;-44
2021/03/30 06:31:01;;;;;;;25.23;12.57;;;7.20;90.60;;;;;;5065448;28;20464;-37
2021/03/30 06:33:29;;;;;;;22.88;12.57;;;7.30;90.60;;;;;;5065188;28;20087;-39
2021/03/30 06:36:13;;;;;;;22.70;13.20;;;7.40;90.60;;;;;;5065063;28;20103;-37
2021/03/30 06:39:03;;;;;;;23.70;13.45;;;7.50;90.60;;;;;;5062217;28;20032;-37
2021/03/30 06:41:38;;;;;;;22.80;13.10;;;7.60;90.50;;;;;;5063389;28;20029;-39
2021/03/30 06:44:25;;;;;;;23.90;14.05;;;7.70;90.30;;;;;;5065377;28;20028;-37
2021/03/30 06:47:17;;;;;;;23.33;13.07;;;7.80;90.20;;;;;;5053105;28;20033;-39
2021/03/30 06:50:08;;;;;;;23.08;12.88;;;7.90;90.10;;;;;;5064600;28;20032;-39
2021/03/30 06:52:36;;;;;;;24.23;13.75;;;8.00;90.10;;;;;;5065050;28;20028;-40
2021/03/30 06:55:13;;;;;;;27.10;14.50;;;8.10;90.00;;;;;;5064338;28;20373;-39
2021/03/30 06:57:47;;;;;;;25.27;14.73;;;8.20;90.00;;;;;;5065164;28;20033;-38
2021/03/30 07:00:24;;;;;;;24.20;14.55;;;8.30;89.90;;;;;;5064895;28;20032;-38
2021/03/30 07:03:02;;;;;;;27.75;14.60;;;8.30;89.70;;;;;;5064443;28;20028;-36
2021/03/30 07:05:31;;;;;;;24.55;13.80;;;8.40;89.50;;;;;;5064567;28;20068;-39
2021/03/30 07:07:59;;;;;;;29.67;16.50;;;8.50;89.50;;;;;;5064771;28;20050;-37
2021/03/30 07:10:26;;;;;;;29.75;16.90;;;8.60;89.50;;;;;;5064032;28;20488;-39
2021/03/30 07:12:52;;;;;;;30.40;17.58;;;8.70;89.40;;;;;;5064852;28;20020;-38
2021/03/30 07:15:19;;;;;;;28.58;16.48;;;8.70;89.20;;;;;;5064947;28;20035;-40
2021/03/30 07:18:02;;;;;;;32.10;17.38;;;8.80;89.00;;;;;;5064158;28;20024;-38
2021/03/30 07:20:32;;;;;;;29.83;17.50;;;8.90;88.90;;;;;;5064728;28;20035;-38
2021/03/30 07:22:59;;;;;;;27.65;17.33;;;9.00;88.70;;;;;;5064096;28;20066;-38
2021/03/30 07:25:28;;;;;;;25.45;16.23;;;9.00;88.60;;;;;;5064158;28;20024;-38
2021/03/30 07:28:00;;;;;;;27.63;16.13;;;9.10;88.50;;;;;;5064019;28;20029;-39
2021/03/30 07:30:26;;;;;;;28.95;16.58;;;9.10;88.50;;;;;;5063445;28;20043;-39
2021/03/30 07:33:04;;;;;;;26.75;16.48;;;9.10;88.40;;;;;;5064483;28;20158;-38
2021/03/30 07:35:32;;;;;;;26.48;16.23;;;9.20;88.40;;;;;;5064258;28;20480;-39
2021/03/30 07:38:15;;;;;;;27.33;16.20;;;9.20;88.40;;;;;;5063920;28;20221;-37
2021/03/30 07:40:42;;;;;;;26.63;16.75;;;9.30;88.40;;;;;;5064335;28;20025;-39
2021/03/30 07:43:10;;;;;;;26.10;15.90;;;9.30;88.30;;;;;;5064352;28;20024;-39
2021/03/30 07:45:38;;;;;;;29.10;16.70;;;9.40;88.30;;;;;;5064159;28;20020;-37
2021/03/30 07:48:06;;;;;;;28.40;16.25;;;9.50;88.30;;;;;;5063361;28;20013;-38
2021/03/30 07:50:59;;;;;;;27.95;16.88;;;9.60;88.20;;;;;;5064556;28;20039;-39
2021/03/30 07:53:44;;;;;;;26.80;15.98;;;9.60;88.10;;;;;;5064395;28;20028;-36
2021/03/30 07:56:29;;;;;;;24.58;15.73;;;9.70;88.10;;;;;;5064418;28;20058;-35
2021/03/30 07:58:56;;;;;;;26.17;16.67;;;9.80;88.00;;;;;;5064199;28;20024;-38
2021/03/30 08:01:28;;;;;;;26.83;16.33;;;9.90;88.00;;;;;;5064429;28;20477;-39
2021/03/30 08:03:55;;;;;;;28.45;17.65;;;10.00;87.90;;;;;;5064158;28;20124;-40
2021/03/30 08:06:22;;;;;;;32.17;17.73;;;10.00;87.90;;;;;;5057039;28;20056;-39
2021/03/30 08:08:49;;;;;;;28.63;16.65;;;10.10;87.80;;;;;;5063941;28;20028;-39
2021/03/30 08:11:16;;;;;;;27.55;16.38;;;10.20;87.80;;;;;;5064643;28;20023;-39
2021/03/30 08:13:54;;;;;;;33.03;17.92;;;10.30;87.70;;;;;;5062143;28;20422;-39
2021/03/30 08:16:20;;;;;;;28.75;17.55;;;10.40;87.70;;;;;;5064479;28;20480;-39
2021/03/30 08:18:47;;;;;;;32.22;18.65;;;10.50;87.70;;;;;;5063968;28;20430;-39
2021/03/30 08:21:18;;;;;;;27.58;16.45;;;10.60;87.70;;;;;;5064274;28;20125;-37
2021/03/30 08:23:53;;;;;;;27.88;16.55;;;10.70;87.60;;;;;;5064001;28;20554;-36
2021/03/30 08:26:20;;;;;;;26.85;16.77;;;10.80;87.50;;;;;;5043415;28;20112;-41
2021/03/30 08:28:48;;;;;;;29.08;17.10;;;10.80;87.50;;;;;;5058974;28;20388;-42
2021/03/30 08:31:22;;;;;;;28.00;17.00;;;10.90;87.60;;;;;;5064407;28;20037;-39
2021/03/30 08:33:53;;;;;;;27.00;16.70;;;11.00;87.60;;;;;;5063420;28;20024;-42
2021/03/30 08:36:22;;;;;;;30.83;17.35;;;11.10;87.50;;;;;;5064515;28;20035;-40
2021/03/30 08:38:49;;;;;;;28.77;18.42;;;11.20;87.50;;;;;;5063701;28;20057;-41
2021/03/30 08:41:43;;;;;;;27.10;17.42;;;11.20;87.50;;;;;;5064022;28;20108;-40
2021/03/30 08:44:13;;;;;;;29.58;19.15;;;11.30;87.70;;;;;;5067517;28;20017;-41
2021/03/30 08:46:40;;;;;;;34.20;19.75;;;11.40;87.80;;;;;;5067615;28;20074;-46
2021/03/30 08:49:34;;;;;;;29.40;18.92;;;11.50;88.30;;;;;;5066822;28;20111;-37
2021/03/30 08:52:02;;;;;;;29.30;17.65;;;11.60;87.90;;;;;;5051363;28;20586;-40
2021/03/30 08:54:30;;;;;;;28.90;18.35;;;11.70;87.60;;;;;;5066968;28;20031;-37
2021/03/30 08:57:02;;;;;;;30.45;17.63;;;11.70;87.50;;;;;;5067210;28;20043;-40
2021/03/30 08:59:28;;;;;;;27.63;17.20;;;11.80;87.60;;;;;;5067279;28;20028;-40
2021/03/30 09:01:58;;;;;;;29.63;18.70;;;11.80;87.70;;;;;;5067279;28;20033;-39
2021/03/30 09:04:29;;;;;;;29.70;17.50;;;11.90;88.00;;;;;;5066529;28;20064;-40
2021/03/30 09:06:54;;;;;;;27.65;17.63;;;12.00;87.80;;;;;;5067205;28;20024;-39
2021/03/30 09:09:26;;;;;;;27.75;17.80;;;12.10;87.70;;;;;;5066898;28;20540;-38
2021/03/30 09:11:52;;;;;;;28.05;17.70;;;12.10;87.70;;;;;;5067361;28;20021;-38
2021/03/30 09:14:22;;;;;;;29.20;17.02;;;12.10;87.60;;;;;;5067378;28;20502;-38
2021/03/30 09:16:51;;;;;;;27.67;17.02;;;12.20;87.60;;;;;;5066139;28;20036;-40
2021/03/30 09:19:29;;;;;;;30.38;18.23;;;12.20;87.60;;;;;;5067037;28;20040;-39
2021/03/30 09:22:03;;;;;;;26.90;16.98;;;12.30;87.60;;;;;;5056765;28;20441;-38
2021/03/30 09:24:48;;;;;;;24.60;15.95;;;12.40;87.40;;;;;;5066867;28;20044;-40
2021/03/30 09:27:20;;;;;;;26.00;15.73;;;12.40;87.10;;;;;;5058603;28;20040;-40
2021/03/30 09:29:45;;;;;;;27.15;16.00;;;12.50;87.00;;;;;;5066385;28;20222;-40
2021/03/30 09:32:11;;;;;;;28.10;16.02;;;12.50;86.80;;;;;;5066922;28;20029;-39
2021/03/30 09:34:40;;;;;;;29.98;16.70;;;12.60;86.70;;;;;;5066980;28;20154;-40
2021/03/30 09:37:06;;;;;;;24.55;15.68;;;12.60;86.60;;;;;;5066360;28;20032;-40
2021/03/30 09:39:35;;;;;;;29.27;16.65;;;12.60;86.50;;;;;;5066730;28;20025;-40
2021/03/30 09:42:01;;;;;;;27.95;16.00;;;12.70;86.50;;;;;;5063265;28;20032;-42
2021/03/30 09:44:32;;;;;;;25.65;16.27;;;12.70;86.30;;;;;;5065968;28;20041;-42
2021/03/30 09:46:58;;;;;;;23.02;14.98;;;12.80;86.20;;;;;;5066151;28;20037;-40
2021/03/30 09:49:26;;;;;;;24.73;15.77;;;12.80;86.10;;;;;;5067176;28;20033;-40
2021/03/30 09:51:53;;;;;;;27.27;17.17;;;12.90;86.00;;;;;;5065760;28;20043;-40
2021/03/30 09:54:20;;;;;;;28.48;16.60;;;13.10;85.40;;;;;;5066435;28;20048;-40
2021/03/30 09:56:46;;;;;;;23.70;15.85;;;13.30;84.90;;;;;;5066495;28;20050;-39
2021/03/30 09:59:19;;;;;;;25.42;15.98;;;13.40;84.40;;;;;;5065954;28;20110;-39
2021/03/30 10:01:45;;;;;;;26.92;16.20;;;13.50;83.80;;;;;;5066749;28;20078;-38
2021/03/30 10:04:11;;;;;;;23.50;15.07;;;13.70;83.60;;;;;;5066276;28;20073;-39
2021/03/30 10:06:37;;;;;;;20.83;14.13;;;13.70;83.50;;;;;;5065201;28;20337;-39
2021/03/30 10:09:07;;;;;;;23.63;15.90;;;13.70;83.30;;;;;;5066141;28;20419;-39
2021/03/30 10:11:33;;;;;;;23.95;15.13;;;13.70;83.20;;;;;;5065532;28;20052;-38
2021/03/30 10:14:17;;;;;;;19.55;12.88;;;13.80;83.10;;;;;;5065043;28;20122;-39
2021/03/30 10:16:43;;;;;;;21.88;13.35;;;13.80;83.00;;;;;;5064195;28;20021;-40
2021/03/30 10:19:11;;;;;;;22.52;13.82;;;13.80;82.90;;;;;;5064460;28;20028;-40
2021/03/30 10:21:37;;;;;;;20.48;13.68;;;13.90;82.80;;;;;;5061657;28;20463;-40
2021/03/30 10:24:15;;;;;;;21.98;13.35;;;13.90;82.50;;;;;;5060925;28;20032;-39
2021/03/30 10:26:40;;;;;;;22.38;13.43;;;14.00;82.50;;;;;;5063701;28;20758;-39
2021/03/30 10:29:13;;;;;;;24.02;14.15;;;14.10;82.10;;;;;;5061680;28;20150;-40
2021/03/30 10:31:50;;;;;;;23.08;13.32;;;14.20;81.30;;;;;;5054535;28;20107;-37
2021/03/30 10:34:35;;;;;;;19.33;12.85;;;14.30;80.70;;;;;;5065095;28;20108;-37
2021/03/30 10:37:03;;;;;;;25.50;15.63;;;14.50;79.10;;;;;;5064864;28;20029;-40
2021/03/30 10:39:33;;;;;;;25.25;15.48;;;14.60;77.20;;;;;;5065683;28;20068;-38
2021/03/30 10:42:06;;;;;;;27.17;15.20;;;14.80;77.20;;;;;;5061059;28;20124;-39
2021/03/30 10:44:33;;;;;;;24.42;14.40;;;15.00;76.80;;;;;;5053508;28;20481;-39
2021/03/30 10:47:13;;;;;;;22.98;13.90;;;15.00;76.60;;;;;;5058175;28;20483;-41
2021/03/30 10:49:39;;;;;;;20.17;12.10;;;15.10;76.70;;;;;;5064707;28;20020;-39
2021/03/30 10:52:05;;;;;;;19.13;11.75;;;14.90;76.40;;;;;;5059294;28;20503;-40
2021/03/30 10:54:31;;;;;;;19.85;12.52;;;14.90;75.80;;;;;;5064518;28;20028;-37
2021/03/30 10:56:56;;;;;;;19.30;11.05;;;15.00;74.70;;;;;;5062939;28;20485;-41
2021/03/30 10:59:24;;;;;;;16.90;10.93;;;15.20;74.60;;;;;;5062713;28;20552;-42
2021/03/30 11:01:49;;;;;;;16.23;9.82;;;15.20;74.50;;;;;;5057053;28;20115;-41
2021/03/30 11:04:15;;;;;;;17.83;11.18;;;15.20;74.30;;;;;;5064566;28;20111;-37
2021/03/30 11:06:46;;;;;;;21.25;13.40;;;15.20;74.30;;;;;;5064583;28;20047;-38
2021/03/30 11:09:12;;;;;;;24.73;14.13;;;15.30;73.70;;;;;;5063029;28;20020;-35
2021/03/30 11:11:41;;;;;;;20.20;13.45;;;15.40;73.50;;;;;;5062666;28;20032;-39
2021/03/30 11:14:07;;;;;;;18.70;12.25;;;15.50;70.40;;;;;;5063174;28;20056;-40
2021/03/30 11:16:32;;;;;;;20.75;13.27;;;15.70;70.80;;;;;;5064789;28;20067;-41
2021/03/30 11:18:58;;;;;;;21.92;13.30;;;15.70;70.30;;;;;;5055085;28;20488;-37
2021/03/30 11:21:24;;;;;;;23.48;13.60;;;15.80;70.30;;;;;;5059265;28;20037;-39
2021/03/30 11:23:57;;;;;;;23.67;14.10;;;15.90;70.50;;;;;;5057119;28;20032;-39
2021/03/30 11:26:23;;;;;;;25.13;14.65;;;15.90;70.50;;;;;;5056309;28;20141;-37
2021/03/30 11:28:48;;;;;;;20.63;12.43;;;15.90;70.40;;;;;;5065286;28;20535;-38
2021/03/30 11:34:11;;;;;;;23.27;14.20;;;15.90;70.10;;;;;;5059281;28;20031;-41
2021/03/30 11:36:41;;;;;;;23.75;13.68;;;16.00;69.90;;;;;;5061694;28;20139;-40
2021/03/30 11:39:07;;;;;;;22.40;13.13;;;16.00;70.00;;;;;;5061076;28;20119;-37
2021/03/30 11:41:32;;;;;;;23.33;14.50;;;16.10;69.80;;;;;;5064058;28;20057;-42
2021/03/30 11:43:58;;;;;;;21.58;14.05;;;16.20;69.20;;;;;;5059538;28;20017;-40
2021/03/30 11:46:27;;;;;;;21.27;12.50;;;16.20;69.40;;;;;;5062209;28;20029;-39
2021/03/30 11:48:52;;;;;;;23.65;13.07;;;16.20;69.70;;;;;;5056666;28;20055;-38
2021/03/30 11:51:18;;;;;;;22.48;12.68;;;16.20;69.90;;;;;;5062322;28;20403;-39
2021/03/30 11:53:44;;;;;;;23.45;14.30;;;16.20;69.60;;;;;;5062181;28;20388;-39
2021/03/30 11:56:10;;;;;;;24.95;14.05;;;16.30;68.30;;;;;;5052606;28;20102;-38
2021/03/30 11:58:36;;;;;;;22.20;13.55;;;16.40;68.40;;;;;;5056964;28;20611;-36
2021/03/30 12:01:02;;;;;;;22.50;13.13;;;16.40;68.50;;;;;;5051421;28;20020;-39
2021/03/30 12:03:28;;;;;;;30.75;17.60;;;16.50;69.10;;;;;;5055848;28;20652;-38
2021/03/30 12:05:53;;;;;;;22.45;13.98;;;16.50;66.70;;;;;;5059907;28;20133;-39
2021/03/30 12:08:19;;;;;;;24.30;14.27;;;16.60;66.00;;;;;;5063292;28;20028;-41
2021/03/30 12:10:44;;;;;;;24.05;14.85;;;16.80;65.60;;;;;;5070004;28;20030;-39
2021/03/30 12:13:10;;;;;;;21.30;13.30;;;16.90;64.40;;;;;;5062502;28;20097;-37
2021/03/30 12:15:35;;;;;;;19.17;12.18;;;17.00;63.90;;;;;;5063005;28;20024;-39
2021/03/30 12:18:01;;;;;;;16.52;10.30;;;17.00;64.50;;;;;;5065134;28;20376;-40
2021/03/30 12:20:26;;;;;;;18.73;11.95;;;17.10;64.50;;;;;;5067087;28;20020;-37
2021/03/30 12:22:52;;;;;;;19.42;11.07;;;17.10;63.60;;;;;;5067705;28;20035;-38
2021/03/30 12:25:17;;;;;;;18.05;10.82;;;17.20;63.70;;;;;;5059487;28;20454;-38
2021/03/30 12:27:46;;;;;;;17.00;10.10;;;17.30;63.50;;;;;;5061337;28;20035;-39
2021/03/30 12:30:12;;;;;;;15.50;9.93;;;17.30;62.40;;;;;;5064142;28;20573;-39
2021/03/30 12:32:38;;;;;;;16.98;10.57;;;17.40;62.60;;;;;;5067727;28;20036;-45
2021/03/30 12:35:05;;;;;;;17.52;11.07;;;17.40;62.50;;;;;;5061535;28;20145;-38
2021/03/30 12:37:30;;;;;;;20.38;11.45;;;17.40;62.10;;;;;;5066002;28;20145;-41
2021/03/30 12:39:56;;;;;;;15.82;9.93;;;17.50;62.20;;;;;;5066433;28;20154;-43
2021/03/30 12:42:22;;;;;;;18.30;10.93;;;17.50;62.20;;;;;;5064747;28;20023;-37
2021/03/30 12:44:47;;;;;;;14.88;9.90;;;17.50;62.40;;;;;;5065511;28;20383;-44
2021/03/30 12:47:13;;;;;;;21.17;12.60;;;17.50;62.70;;;;;;5060927;28;20178;-39